createdAt,value
2018-02-13T00:00:16.714Z,4.27
2018-02-13T00:02:45.795Z,4.26
2018-02-13T00:05:14.115Z,4.25
2018-02-13T00:07:42.494Z,4.24
2018-02-13T00:10:11.568Z,4.22
2018-02-13T00:12:39.868Z,4.21
2018-02-13T00:15:08.152Z,4.17
2018-02-13T00:17:36.580Z,4.08
2018-02-13T00:20:05.658Z,4.12
2018-02-13T00:22:49.265Z,4.13
2018-02-13T00:25:17.580Z,4.11
2018-02-13T00:27:45.932Z,4.11
2018-02-13T00:30:14.340Z,4.08
2018-02-13T00:32:42.680Z,4.05
2018-02-13T00:35:11.014Z,4.02
2018-02-13T00:37:40.132Z,4.00
2018-02-13T00:40:08.461Z,4.00
2018-02-13T00:42:36.760Z,3.98
2018-02-13T00:45:05.070Z,3.99
2018-02-13T00:47:34.122Z,3.97
2018-02-13T00:50:02.407Z,3.95
2018-02-13T00:52:30.693Z,3.96
2018-02-13T00:54:59.007Z,3.98
2018-02-13T00:57:28.071Z,3.99
2018-02-13T00:59:56.413Z,3.99
2018-02-13T01:02:24.749Z,4.00
2018-02-13T01:04:53.054Z,4.02
2018-02-13T01:07:22.128Z,4.02
2018-02-13T01:09:50.451Z,4.00
2018-02-13T01:12:18.742Z,3.98
2018-02-13T01:14:47.060Z,3.96
2018-02-13T01:17:16.196Z,3.95
2018-02-13T01:19:45.277Z,3.93
2018-02-13T01:22:13.596Z,3.88
2018-02-13T01:24:41.935Z,3.86
2018-02-13T01:27:10.243Z,3.85
2018-02-13T01:29:39.327Z,3.85
2018-02-13T01:32:07.723Z,3.83
2018-02-13T01:34:36.813Z,3.84
2018-02-13T01:37:05.897Z,3.85
2018-02-13T01:39:34.205Z,3.85
2018-02-13T01:42:03.300Z,3.84
2018-02-13T01:44:32.370Z,3.83
2018-02-13T01:47:00.752Z,3.81
2018-02-13T01:49:29.101Z,3.83
2018-02-13T01:51:57.399Z,3.82
2018-02-13T01:54:26.662Z,3.85
2018-02-13T01:56:55.743Z,3.84
2018-02-13T01:59:24.049Z,3.83
2018-02-13T02:01:52.356Z,3.84
2018-02-13T02:04:20.691Z,3.83
2018-02-13T02:06:49.747Z,3.83
2018-02-13T02:09:18.054Z,3.78
2018-02-13T02:11:47.150Z,3.78
2018-02-13T02:14:15.493Z,3.78
2018-02-13T02:16:44.393Z,3.76
2018-02-13T02:19:12.685Z,3.74
2018-02-13T02:21:41.026Z,3.71
2018-02-13T02:24:09.402Z,3.71
2018-02-13T02:26:37.730Z,3.66
2018-02-13T02:29:06.053Z,3.62
2018-02-13T02:31:35.112Z,3.56
2018-02-13T02:34:03.412Z,3.56
2018-02-13T02:36:31.736Z,3.56
2018-02-13T02:39:00.122Z,3.56
2018-02-13T02:41:28.390Z,3.56
2018-02-13T02:43:57.512Z,3.55
2018-02-13T02:46:25.900Z,3.50
2018-02-13T02:48:54.249Z,3.47
2018-02-13T02:51:23.356Z,3.45
2018-02-13T02:53:52.462Z,3.45
2018-02-13T02:56:21.536Z,3.46
2018-02-13T02:58:49.864Z,3.46
2018-02-13T03:01:18.168Z,3.44
2018-02-13T03:03:46.513Z,3.41
2018-02-13T03:06:14.920Z,3.40
2018-02-13T03:08:43.393Z,3.41
2018-02-13T03:11:11.705Z,3.39
2018-02-13T03:13:40.044Z,3.36
2018-02-13T03:16:08.366Z,3.34
2018-02-13T03:18:36.713Z,3.33
2018-02-13T03:21:05.066Z,3.35
2018-02-13T03:23:33.407Z,3.35
2018-02-13T03:26:01.724Z,3.35
2018-02-13T03:28:30.062Z,3.34
2018-02-13T03:30:58.482Z,3.33
2018-02-13T03:33:26.840Z,3.32
2018-02-13T03:35:55.194Z,3.32
2018-02-13T03:38:24.309Z,3.31
2018-02-13T03:40:53.401Z,3.31
2018-02-13T03:43:21.731Z,3.32
2018-02-13T03:45:50.045Z,3.31
2018-02-13T03:48:19.151Z,3.32
2018-02-13T03:50:47.509Z,3.30
2018-02-13T03:53:15.843Z,3.32
2018-02-13T03:55:44.171Z,3.31
2018-02-13T03:58:12.503Z,3.26
2018-02-13T04:00:40.847Z,3.24
2018-02-13T04:03:09.928Z,3.25
2018-02-13T04:05:38.259Z,3.23
2018-02-13T04:08:06.565Z,3.21
2018-02-13T04:10:34.926Z,3.19
2018-02-13T04:13:03.261Z,3.18
2018-02-13T04:15:32.451Z,3.16
2018-02-13T04:18:00.757Z,3.16
2018-02-13T04:20:29.853Z,3.13
2018-02-13T04:22:58.931Z,3.11
2018-02-13T04:25:27.238Z,3.11
2018-02-13T04:27:56.351Z,3.11
2018-02-13T04:30:24.653Z,3.10
2018-02-13T04:32:52.969Z,3.06
2018-02-13T04:35:21.380Z,3.03
2018-02-13T04:37:49.713Z,3.05
2018-02-13T04:40:18.009Z,3.02
2018-02-13T04:42:46.329Z,3.00
2018-02-13T04:45:15.427Z,2.99
2018-02-13T04:47:44.494Z,3.00
2018-02-13T04:50:12.835Z,2.98
2018-02-13T04:52:41.159Z,2.99
2018-02-13T04:55:10.178Z,2.99
2018-02-13T04:57:38.501Z,2.98
2018-02-13T05:00:07.563Z,2.98
2018-02-13T05:02:36.683Z,2.96
2018-02-13T05:05:05.792Z,2.95
2018-02-13T05:07:34.099Z,2.91
2018-02-13T05:10:02.433Z,2.88
2018-02-13T05:12:31.514Z,2.87
2018-02-13T05:14:59.844Z,2.86
2018-02-13T05:17:29.024Z,2.85
2018-02-13T05:19:58.127Z,2.85
2018-02-13T05:22:27.201Z,2.84
2018-02-13T05:24:55.603Z,2.83
2018-02-13T05:27:24.684Z,2.81
2018-02-13T05:29:53.013Z,2.78
2018-02-13T05:32:21.347Z,2.77
2018-02-13T05:34:49.675Z,2.77
2018-02-13T05:37:17.986Z,2.77
2018-02-13T05:39:46.305Z,2.80
2018-02-13T05:42:15.469Z,2.80
2018-02-13T05:44:43.741Z,2.82
2018-02-13T05:47:12.049Z,2.84
2018-02-13T05:49:40.343Z,2.84
2018-02-13T05:52:09.431Z,2.83
2018-02-13T05:54:37.795Z,2.82
2018-02-13T05:57:06.111Z,2.80
2018-02-13T05:59:35.198Z,2.77
2018-02-13T06:02:03.523Z,2.76
2018-02-13T06:04:31.827Z,2.75
2018-02-13T06:07:00.137Z,2.75
2018-02-13T06:09:28.487Z,2.75
2018-02-13T06:11:56.821Z,2.75
2018-02-13T06:14:25.919Z,2.76
2018-02-13T06:16:54.995Z,2.76
2018-02-13T06:19:23.365Z,2.75
2018-02-13T06:21:51.657Z,2.72
2018-02-13T06:24:19.965Z,2.73
2018-02-13T06:26:49.051Z,2.73
2018-02-13T06:29:17.382Z,2.76
2018-02-13T06:31:45.702Z,2.76
2018-02-13T06:34:14.810Z,2.75
2018-02-13T06:36:43.966Z,2.77
2018-02-13T06:39:13.057Z,2.79
2018-02-13T06:41:41.379Z,2.78
2018-02-13T06:44:09.682Z,2.79
2018-02-13T06:46:38.011Z,2.77
2018-02-13T06:49:06.343Z,2.76
2018-02-13T06:51:34.739Z,2.77
2018-02-13T06:54:03.810Z,2.78
2018-02-13T06:56:32.912Z,2.79
2018-02-13T06:59:01.247Z,2.80
2018-02-13T07:01:29.618Z,2.81
2018-02-13T07:03:58.690Z,2.83
2018-02-13T07:06:27.003Z,2.85
2018-02-13T07:08:55.355Z,2.85
2018-02-13T07:11:23.712Z,2.85
2018-02-13T07:13:52.195Z,2.85
2018-02-13T07:16:20.520Z,2.85
2018-02-13T07:18:49.629Z,2.89
2018-02-13T07:21:18.702Z,2.89
2018-02-13T07:23:47.038Z,2.92
2018-02-13T07:26:15.332Z,2.95
2018-02-13T07:28:43.641Z,2.96
2018-02-13T07:31:11.967Z,2.96
2018-02-13T07:33:40.255Z,2.96
2018-02-13T07:36:08.578Z,2.99
2018-02-13T07:38:36.895Z,3.01
2018-02-13T07:41:05.977Z,3.04
2018-02-13T07:43:34.287Z,3.05
2018-02-13T07:46:02.605Z,3.07
2018-02-13T07:48:31.650Z,3.05
2018-02-13T07:51:00.727Z,3.04
2018-02-13T07:53:29.023Z,3.05
2018-02-13T07:55:58.141Z,3.07
2018-02-13T07:58:27.215Z,3.12
2018-02-13T08:00:55.508Z,3.20
2018-02-13T08:03:24.562Z,3.27
2018-02-13T08:05:52.963Z,3.32
2018-02-13T08:08:21.279Z,3.35
2018-02-13T08:10:50.353Z,3.41
2018-02-13T08:13:18.766Z,3.46
2018-02-13T08:15:47.835Z,3.53
2018-02-13T08:18:16.123Z,3.58
2018-02-13T08:20:44.414Z,3.64
2018-02-13T08:23:13.506Z,3.70
2018-02-13T08:25:42.594Z,3.74
2018-02-13T08:28:10.905Z,3.81
2018-02-13T08:30:39.972Z,3.87
2018-02-13T08:33:08.365Z,3.92
2018-02-13T08:35:37.572Z,3.96
2018-02-13T08:38:05.960Z,4.02
2018-02-13T08:40:35.752Z,4.07
2018-02-13T08:43:04.067Z,4.12
2018-02-13T08:45:33.138Z,4.16
2018-02-13T08:48:01.473Z,4.23
2018-02-13T08:50:29.764Z,4.29
2018-02-13T08:52:58.063Z,4.34
2018-02-13T08:55:26.352Z,4.39
2018-02-13T08:57:54.748Z,4.43
2018-02-13T09:00:23.134Z,4.46
2018-02-13T09:02:51.463Z,4.51
2018-02-13T09:05:19.777Z,4.57
2018-02-13T09:07:48.089Z,4.63
2018-02-13T09:10:16.406Z,4.68
2018-02-13T09:12:44.790Z,4.76
2018-02-13T09:15:13.092Z,4.82
2018-02-13T09:17:41.390Z,4.87
2018-02-13T09:20:09.709Z,4.96
2018-02-13T09:22:38.848Z,5.02
2018-02-13T09:25:07.736Z,5.07
2018-02-13T09:27:36.042Z,5.11
2018-02-13T09:30:04.328Z,5.12
2018-02-13T09:32:32.630Z,5.16
2018-02-13T09:35:00.930Z,5.21
2018-02-13T09:37:29.978Z,5.20
2018-02-13T09:39:58.298Z,5.22
2018-02-13T09:42:26.608Z,5.25
2018-02-13T09:44:55.683Z,5.32
2018-02-13T09:47:24.006Z,5.34
2018-02-13T09:49:52.304Z,5.35
2018-02-13T09:52:20.618Z,5.37
2018-02-13T09:54:48.928Z,5.44
2018-02-13T09:57:17.252Z,5.49
2018-02-13T09:59:45.575Z,5.56
2018-02-13T10:02:14.642Z,5.62
2018-02-13T10:04:42.946Z,5.67
2018-02-13T10:07:11.241Z,5.77
2018-02-13T10:09:40.291Z,5.83
2018-02-13T10:12:08.601Z,5.89
2018-02-13T10:14:36.885Z,5.93
2018-02-13T10:17:05.185Z,5.95
2018-02-13T10:19:34.230Z,5.98
2018-02-13T10:22:02.520Z,6.00
2018-02-13T10:24:30.808Z,6.05
2018-02-13T10:26:59.140Z,6.10
2018-02-13T10:29:28.212Z,6.14
2018-02-13T10:31:56.536Z,6.19
2018-02-13T10:34:24.908Z,6.26
2018-02-13T10:36:53.180Z,6.31
2018-02-13T10:39:21.568Z,6.37
2018-02-13T10:41:49.957Z,6.41
2018-02-13T10:44:18.297Z,6.45
2018-02-13T10:46:46.586Z,6.50
2018-02-13T10:49:14.900Z,6.56
2018-02-13T10:51:43.921Z,6.61
2018-02-13T10:54:12.238Z,6.68
2018-02-13T10:56:40.551Z,6.74
2018-02-13T10:59:08.884Z,6.79
2018-02-13T11:01:40.000Z,6.86
2018-02-13T11:04:08.292Z,6.89
2018-02-13T11:06:36.600Z,6.92
2018-02-13T11:09:04.908Z,6.97
2018-02-13T11:11:33.986Z,7.03
2018-02-13T11:14:02.305Z,7.11
2018-02-13T11:16:31.386Z,7.18
2018-02-13T11:19:00.530Z,7.27
2018-02-13T11:21:28.864Z,7.32
2018-02-13T11:23:57.184Z,7.39
2018-02-13T11:26:25.476Z,7.45
2018-02-13T11:28:53.796Z,7.51
2018-02-13T11:31:22.117Z,7.58
2018-02-13T11:33:51.230Z,7.62
2018-02-13T11:36:19.515Z,7.65
2018-02-13T11:38:47.804Z,7.72
2018-02-13T11:41:16.122Z,7.79
2018-02-13T11:43:44.431Z,7.85
2018-02-13T11:46:13.524Z,7.88
2018-02-13T11:48:42.582Z,7.93
2018-02-13T11:51:10.878Z,8.00
2018-02-13T11:53:39.158Z,8.08
2018-02-13T11:56:07.444Z,8.15
2018-02-13T11:58:35.751Z,8.21
2018-02-13T12:01:04.052Z,8.31
2018-02-13T12:03:32.348Z,8.40
2018-02-13T12:06:00.626Z,8.46
2018-02-13T12:08:28.925Z,8.56
2018-02-13T12:10:57.819Z,8.65
2018-02-13T12:13:26.106Z,8.70
2018-02-13T12:15:54.412Z,8.72
2018-02-13T12:18:22.706Z,8.79
2018-02-13T12:20:51.021Z,8.85
2018-02-13T12:23:19.346Z,8.94
2018-02-13T12:25:47.672Z,8.99
2018-02-13T12:28:16.710Z,9.05
2018-02-13T12:30:45.030Z,9.09
2018-02-13T12:33:13.924Z,9.10
2018-02-13T12:35:42.218Z,9.13
2018-02-13T12:38:11.306Z,9.17
2018-02-13T12:40:39.617Z,9.18
2018-02-13T12:43:07.971Z,9.25
2018-02-13T12:45:37.030Z,9.30
2018-02-13T12:48:05.355Z,9.33
2018-02-13T12:50:34.410Z,9.41
2018-02-13T12:53:02.738Z,9.43
2018-02-13T12:55:31.839Z,9.46
2018-02-13T12:58:00.896Z,9.44
2018-02-13T13:00:29.226Z,9.42
2018-02-13T13:02:58.318Z,9.40
2018-02-13T13:05:27.462Z,9.38
2018-02-13T13:07:56.532Z,9.38
2018-02-13T13:10:24.836Z,9.38
2018-02-13T13:12:53.148Z,9.40
2018-02-13T13:15:21.426Z,9.39
2018-02-13T13:17:49.723Z,9.39
2018-02-13T13:20:18.128Z,9.40
2018-02-13T13:22:47.199Z,9.40
2018-02-13T13:25:15.496Z,9.41
2018-02-13T13:27:43.812Z,9.42
2018-02-13T13:30:12.128Z,9.41
2018-02-13T13:32:40.510Z,9.39
2018-02-13T13:35:08.830Z,9.39
2018-02-13T13:37:37.929Z,9.43
2018-02-13T13:40:07.026Z,9.43
2018-02-13T13:42:36.090Z,9.43
2018-02-13T13:45:04.375Z,9.44
2018-02-13T13:47:32.686Z,9.48
2018-02-13T13:50:01.118Z,9.48
2018-02-13T13:52:29.439Z,9.51
2018-02-13T13:54:57.743Z,9.51
2018-02-13T13:57:26.812Z,9.50
2018-02-13T13:59:55.913Z,9.48
2018-02-13T14:02:24.260Z,9.43
2018-02-13T14:04:52.628Z,9.43
2018-02-13T14:07:20.957Z,9.43
2018-02-13T14:09:49.242Z,9.42
2018-02-13T14:12:17.534Z,9.43
2018-02-13T14:14:45.820Z,9.44
2018-02-13T14:17:14.098Z,9.43
2018-02-13T14:19:42.388Z,9.38
2018-02-13T14:22:11.461Z,9.37
2018-02-13T14:24:39.749Z,9.40
2018-02-13T14:27:08.042Z,9.42
2018-02-13T14:29:36.372Z,9.43
2018-02-13T14:32:04.693Z,9.41
2018-02-13T14:34:33.031Z,9.38
2018-02-13T14:37:01.337Z,9.39
2018-02-13T14:39:29.701Z,9.39
2018-02-13T14:41:58.044Z,9.38
2018-02-13T14:44:26.299Z,9.37
2018-02-13T14:46:54.600Z,9.35
2018-02-13T14:49:23.658Z,9.33
2018-02-13T14:51:51.947Z,9.31
2018-02-13T14:54:20.270Z,9.30
2018-02-13T14:56:49.339Z,9.30
2018-02-13T14:59:17.618Z,9.31
2018-02-13T15:01:45.984Z,9.28
2018-02-13T15:04:14.305Z,9.26
2018-02-13T15:06:44.248Z,9.25
2018-02-13T15:09:12.578Z,9.26
2018-02-13T15:11:40.883Z,9.29
2018-02-13T15:14:09.961Z,9.30
2018-02-13T15:16:50.133Z,9.32
2018-02-13T15:19:18.440Z,9.31
2018-02-13T15:21:46.768Z,9.31
2018-02-13T15:24:15.091Z,9.29
2018-02-13T15:26:44.159Z,9.29
2018-02-13T15:29:12.462Z,9.29
2018-02-13T15:31:42.887Z,9.24
2018-02-13T15:34:11.191Z,9.18
2018-02-13T15:36:40.237Z,9.16
2018-02-13T15:39:08.539Z,9.14
2018-02-13T15:41:36.840Z,9.11
2018-02-13T15:44:05.917Z,9.09
2018-02-13T15:46:34.206Z,9.05
2018-02-13T15:49:02.569Z,9.03
2018-02-13T15:51:30.867Z,9.02
2018-02-13T15:53:59.182Z,9.03
2018-02-13T15:56:27.523Z,9.01
2018-02-13T15:58:56.578Z,8.99
2018-02-13T16:01:25.769Z,8.95
2018-02-13T16:03:54.073Z,8.90
2018-02-13T16:06:22.397Z,8.86
2018-02-13T16:08:51.456Z,8.82
2018-02-13T16:11:19.759Z,8.76
2018-02-13T16:13:48.059Z,8.69
2018-02-13T16:16:16.385Z,8.64
2018-02-13T16:18:45.174Z,8.57
2018-02-13T16:21:13.529Z,8.52
2018-02-13T16:23:42.597Z,8.48
2018-02-13T16:26:10.907Z,8.42
2018-02-13T16:28:40.008Z,8.39
2018-02-13T16:31:08.405Z,8.34
2018-02-13T16:33:37.463Z,8.28
2018-02-13T16:36:07.211Z,8.19
2018-02-13T16:38:36.327Z,8.12
2018-02-13T16:41:04.620Z,8.05
2018-02-13T16:43:32.915Z,8.00
2018-02-13T16:46:01.866Z,7.95
2018-02-13T16:48:30.943Z,7.90
2018-02-13T16:50:59.301Z,7.81
2018-02-13T16:53:27.641Z,7.75
2018-02-13T16:55:55.943Z,7.69
2018-02-13T16:58:24.279Z,7.69
2018-02-13T17:00:52.572Z,7.67
2018-02-13T17:03:21.713Z,7.65
2018-02-13T17:05:50.013Z,7.57
2018-02-13T17:08:18.304Z,7.52
2018-02-13T17:10:46.602Z,7.52
2018-02-13T17:13:14.915Z,7.50
2018-02-13T17:15:43.305Z,7.49
2018-02-13T17:18:11.627Z,7.46
2018-02-13T17:20:39.924Z,7.45
2018-02-13T17:23:08.252Z,7.45
2018-02-13T17:25:36.654Z,7.43
2018-02-13T17:28:05.309Z,7.41
2018-02-13T17:30:33.589Z,7.40
2018-02-13T17:33:01.896Z,7.37
2018-02-13T17:35:30.191Z,7.35
2018-02-13T17:37:58.522Z,7.31
2018-02-13T17:40:27.642Z,7.28
2018-02-13T17:42:55.947Z,7.28
2018-02-13T17:45:24.254Z,7.25
2018-02-13T17:47:52.600Z,7.20
2018-02-13T17:50:20.922Z,7.19
2018-02-13T17:52:49.205Z,7.17
2018-02-13T17:55:18.263Z,7.14
2018-02-13T17:57:46.559Z,7.26
2018-02-13T18:00:14.958Z,7.16
2018-02-13T18:02:43.290Z,7.09
2018-02-13T18:05:12.366Z,7.02
2018-02-13T18:07:41.449Z,6.97
2018-02-13T18:10:09.780Z,6.88
2018-02-13T18:12:38.111Z,6.81
2018-02-13T18:15:07.196Z,6.73
2018-02-13T18:17:36.128Z,6.63
2018-02-13T18:20:05.228Z,6.58
2018-02-13T18:22:34.329Z,6.51
2018-02-13T18:25:02.684Z,6.45
2018-02-13T18:27:30.995Z,6.39
2018-02-13T18:30:00.088Z,6.34
2018-02-13T18:32:29.199Z,6.28
2018-02-13T18:34:58.281Z,6.23
2018-02-13T18:37:26.590Z,6.17
2018-02-13T18:39:54.896Z,6.20
2018-02-13T18:42:23.181Z,6.09
2018-02-13T18:44:51.481Z,6.03
2018-02-13T18:47:19.792Z,5.97
2018-02-13T18:49:48.875Z,5.92
2018-02-13T18:54:45.478Z,5.85
2018-02-13T18:57:13.831Z,5.82
2018-02-13T18:59:42.138Z,5.79
2018-02-13T19:02:10.441Z,5.77
2018-02-13T19:04:38.732Z,5.75
2018-02-13T19:07:07.022Z,5.72
2018-02-13T19:09:35.347Z,5.70
2018-02-13T19:12:04.426Z,5.68
2018-02-13T19:14:32.727Z,5.67
2018-02-13T19:19:30.059Z,5.64
2018-02-13T19:21:58.438Z,5.57
2018-02-13T19:24:27.455Z,5.54
2018-02-13T19:26:55.743Z,5.52
2018-02-13T19:29:24.072Z,5.49
2018-02-13T19:31:52.388Z,5.46
2018-02-13T19:34:20.676Z,5.42
2018-02-13T19:36:48.977Z,5.39
2018-02-13T19:39:18.052Z,5.35
2018-02-13T19:41:47.233Z,5.33
2018-02-13T19:44:15.565Z,5.30
2018-02-13T19:46:43.846Z,5.29
2018-02-13T19:49:12.158Z,5.28
2018-02-13T19:51:40.480Z,5.25
2018-02-13T19:54:08.833Z,5.23
2018-02-13T19:56:37.208Z,5.23
2018-02-13T19:59:05.586Z,5.26
2018-02-13T20:01:33.891Z,5.25
2018-02-13T20:04:02.257Z,5.23
2018-02-13T20:06:30.550Z,5.21
2018-02-13T20:08:58.887Z,5.14
2018-02-13T20:11:27.214Z,5.07
2018-02-13T20:13:55.502Z,5.02
2018-02-13T20:16:23.826Z,5.00
2018-02-13T20:18:52.153Z,4.97
2018-02-13T20:21:20.487Z,4.92
2018-02-13T20:23:49.595Z,4.88
2018-02-13T20:26:18.751Z,4.87
2018-02-13T20:28:47.129Z,4.84
2018-02-13T20:31:16.077Z,4.85
2018-02-13T20:33:44.381Z,4.82
2018-02-13T20:36:12.676Z,4.81
2018-02-13T20:38:40.963Z,4.78
2018-02-13T20:41:09.291Z,4.77
2018-02-13T20:43:37.601Z,4.75
2018-02-13T20:46:05.942Z,4.73
2018-02-13T20:48:34.274Z,4.71
2018-02-13T20:51:02.605Z,4.69
2018-02-13T20:53:30.925Z,4.67
2018-02-13T20:55:59.998Z,4.65
2018-02-13T20:58:28.355Z,4.64
2018-02-13T21:00:56.708Z,4.62
2018-02-13T21:03:25.011Z,4.60
2018-02-13T21:05:53.325Z,4.59
2018-02-13T21:08:21.623Z,4.56
2018-02-13T21:10:50.700Z,4.55
2018-02-13T21:13:19.010Z,4.57
2018-02-13T21:15:48.109Z,4.57
2018-02-13T21:18:17.198Z,4.48
2018-02-13T21:20:45.514Z,4.45
2018-02-13T21:23:13.812Z,4.44
2018-02-13T21:25:42.108Z,4.43
2018-02-13T21:28:10.416Z,4.43
2018-02-13T21:30:38.745Z,4.42
2018-02-13T21:33:07.048Z,4.40
2018-02-13T21:35:35.369Z,4.39
2018-02-13T21:38:04.449Z,4.38
2018-02-13T21:40:32.751Z,4.40
2018-02-13T21:43:01.819Z,4.39
2018-02-13T21:45:30.120Z,4.37
2018-02-13T21:47:58.440Z,4.37
2018-02-13T21:50:26.764Z,4.36
2018-02-13T21:52:55.075Z,4.34
2018-02-13T21:55:23.371Z,4.34
2018-02-13T21:57:52.481Z,4.33
2018-02-13T22:00:20.805Z,4.32
2018-02-13T22:02:49.127Z,4.31
2018-02-13T22:05:18.220Z,4.29
2018-02-13T22:07:47.334Z,4.28
2018-02-13T22:10:15.640Z,4.25
2018-02-13T22:12:43.953Z,4.25
2018-02-13T22:15:12.289Z,4.21
2018-02-13T22:17:40.599Z,4.19
2018-02-13T22:20:08.896Z,4.17
2018-02-13T22:22:37.206Z,4.18
2018-02-13T22:25:05.508Z,4.16
2018-02-13T22:27:34.585Z,4.15
2018-02-13T22:30:02.900Z,4.14
2018-02-13T22:32:31.484Z,4.17
2018-02-13T22:34:59.868Z,4.10
2018-02-13T22:37:28.919Z,4.07
2018-02-13T22:39:57.235Z,4.05
2018-02-13T22:42:26.307Z,4.03
2018-02-13T22:44:54.606Z,4.01
2018-02-13T22:47:23.798Z,3.99
2018-02-13T22:49:52.110Z,3.98
2018-02-13T22:52:20.401Z,3.96
2018-02-13T22:54:48.730Z,3.94
2018-02-13T22:57:17.029Z,3.97
2018-02-13T22:59:46.102Z,4.01
2018-02-13T23:02:14.394Z,3.94
2018-02-13T23:04:42.757Z,3.92
2018-02-13T23:07:11.094Z,3.91
2018-02-13T23:09:39.394Z,3.89
2018-02-13T23:12:07.696Z,3.88
2018-02-13T23:14:36.002Z,3.87
2018-02-13T23:17:04.350Z,3.84
2018-02-13T23:19:32.659Z,3.83
2018-02-13T23:22:00.981Z,3.81
2018-02-13T23:24:29.277Z,3.77
2018-02-13T23:26:57.596Z,3.76
2018-02-13T23:29:25.954Z,3.75
2018-02-13T23:31:54.246Z,3.74
2018-02-13T23:34:22.552Z,3.71
2018-02-13T23:36:50.858Z,3.69
2018-02-13T23:39:19.952Z,3.67
2018-02-13T23:41:49.059Z,3.70
2018-02-13T23:44:18.120Z,3.68
2018-02-13T23:46:46.410Z,3.63
2018-02-13T23:49:14.736Z,3.60
2018-02-13T23:51:43.054Z,3.56
2018-02-13T23:54:11.379Z,3.54
2018-02-13T23:56:39.678Z,3.54
2018-02-13T23:59:08.747Z,3.52
